Time;durP1;ratioP1;P1;durP2;ratioP2;P2;SDS_P1;SDS_P2;PMS_P1;PMS_P2;Temp;Humidity;BMP_temperature;BMP_pressure;BME280_temperature;BME280_humidity;BME280_pressure;Samples;Min_cycle;Max_cycle;Signal;HPM_P1;HPM_P2
2023/12/14 00:02:21;;;;;;;2.08;1.30;;;;;;;-2.83;100.00;101389.53;5076459;28;20119;-72
2023/12/14 00:04:47;;;;;;;1.83;1.20;;;;;;;-2.82;100.00;101396.47;5042011;28;20032;-73
2023/12/14 00:07:14;;;;;;;2.88;1.20;;;;;;;-2.87;100.00;101396.78;5058533;28;20044;-74
2023/12/14 00:09:41;;;;;;;3.33;1.60;;;;;;;-2.83;100.00;101390.38;5042281;28;20126;-71
2023/12/14 00:12:08;;;;;;;3.05;1.55;;;;;;;-2.84;100.00;101396.59;5058781;28;20123;-77
2023/12/14 00:14:33;;;;;;;1.83;1.20;;;;;;;-2.88;100.00;101395.09;5060003;28;20048;-72
2023/12/14 00:16:59;;;;;;;2.03;1.40;;;;;;;-2.85;100.00;101410.72;5062724;28;20129;-71
2023/12/14 00:19:24;;;;;;;1.88;1.27;;;;;;;-2.87;100.00;101396.78;5076159;28;20082;-71
2023/12/14 00:21:50;;;;;;;2.15;1.40;;;;;;;-2.85;100.00;101410.72;5079725;28;20119;-71
2023/12/14 00:24:15;;;;;;;2.22;1.40;;;;;;;-2.81;100.00;101407.84;5061431;28;20479;-69
2023/12/14 00:26:40;;;;;;;2.17;1.33;;;;;;;-2.94;100.00;101394.66;5062667;28;20037;-70
2023/12/14 00:29:06;;;;;;;1.40;1.10;;;;;;;-2.84;100.00;101416.81;5079797;28;20037;-70
2023/12/14 00:31:33;;;;;;;2.78;1.63;;;;;;;-2.93;100.00;101406.88;5062091;28;20054;-74
2023/12/14 00:33:58;;;;;;;1.52;1.33;;;;;;;-3.04;100.00;101399.66;5029662;28;20040;-71
2023/12/14 00:36:23;;;;;;;2.63;1.55;;;;;;;-2.87;100.00;101422.28;5079621;28;20078;-72
2023/12/14 00:38:49;;;;;;;2.92;1.60;;;;;;;-2.80;100.00;101428.84;5062314;28;20031;-74
2023/12/14 00:41:14;;;;;;;3.78;1.70;;;;;;;-2.83;100.00;101427.25;5062337;28;20049;-73
2023/12/14 00:43:40;;;;;;;2.78;1.55;;;;;;;-2.86;100.00;101423.97;5045448;28;20498;-75
2023/12/14 00:46:05;;;;;;;1.80;1.70;;;;;;;-2.84;100.00;101420.28;5080095;28;20020;-71
2023/12/14 00:48:31;;;;;;;2.13;1.60;;;;;;;-2.86;100.00;101424.78;5045335;28;20058;-73
2023/12/14 00:50:58;;;;;;;2.38;1.50;;;;;;;-2.78;100.00;101431.38;5062486;28;20035;-73
2023/12/14 00:53:23;;;;;;;3.72;1.90;;;;;;;-2.81;100.00;101432.44;5062130;28;20124;-71
2023/12/14 00:55:49;;;;;;;3.13;1.55;;;;;;;-2.85;100.00;101434.41;5080148;28;20119;-73
2023/12/14 00:58:14;;;;;;;2.28;1.60;;;;;;;-2.85;100.00;101430.91;5061465;28;20043;-72
2023/12/14 01:00:41;;;;;;;2.65;1.70;;;;;;;-2.89;100.00;101446.06;5062089;28;20032;-71
2023/12/14 01:03:06;;;;;;;2.55;1.88;;;;;;;-2.89;100.00;101451.31;5079842;28;20084;-72
2023/12/14 01:05:31;;;;;;;2.65;1.70;;;;;;;-2.80;100.00;101460.44;5028378;28;20106;-77
2023/12/14 01:07:57;;;;;;;2.58;1.70;;;;;;;-2.83;100.00;101465.91;5061942;28;20048;-71
2023/12/14 01:10:22;;;;;;;2.38;1.67;;;;;;;-2.85;100.00;101462.50;5045070;28;20028;-70
2023/12/14 01:12:48;;;;;;;3.10;1.90;;;;;;;-2.84;100.00;101459.78;5061218;28;20036;-76
2023/12/14 01:15:14;;;;;;;2.60;1.83;;;;;;;-2.78;100.00;101465.59;5044822;28;20133;-73
2023/12/14 01:17:39;;;;;;;3.08;1.92;;;;;;;-2.79;100.00;101462.13;5079760;28;20054;-73
2023/12/14 01:20:08;;;;;;;3.15;1.80;;;;;;;-2.78;100.00;101473.50;5061871;28;20074;-70
2023/12/14 01:22:34;;;;;;;3.88;1.60;;;;;;;-2.81;100.00;101471.06;5078475;28;20043;-71
2023/12/14 01:24:59;;;;;;;2.50;1.80;;;;;;;-2.79;100.00;101480.56;5061678;28;20025;-68
2023/12/14 01:27:25;;;;;;;3.67;1.70;;;;;;;-2.75;100.00;101478.56;5044193;28;20033;-72
2023/12/14 01:29:50;;;;;;;2.63;1.55;;;;;;;-2.68;100.00;101469.34;5060409;28;20029;-72
2023/12/14 01:32:15;;;;;;;1.90;1.40;;;;;;;-2.68;100.00;101469.34;5078598;28;20139;-72
2023/12/14 01:34:42;;;;;;;2.20;1.40;;;;;;;-2.83;100.00;101472.00;5044146;28;20032;-76
2023/12/14 01:37:08;;;;;;;2.00;1.48;;;;;;;-2.81;100.00;101481.59;5079424;28;20032;-72
2023/12/14 01:39:34;;;;;;;2.53;1.60;;;;;;;-2.73;100.00;101476.72;5079513;28;20032;-75
2023/12/14 01:42:00;;;;;;;2.45;1.50;;;;;;;-2.71;100.00;101477.47;5061851;28;20082;-72
2023/12/14 01:44:25;;;;;;;2.33;1.52;;;;;;;-2.79;100.00;101471.81;5044506;28;20036;-71
2023/12/14 01:46:50;;;;;;;2.78;1.63;;;;;;;-2.79;100.00;101491.09;5079118;28;20040;-72
2023/12/14 01:49:16;;;;;;;2.47;1.38;;;;;;;-2.86;100.00;101484.53;5078700;28;20042;-72
2023/12/14 01:51:41;;;;;;;2.05;1.40;;;;;;;-2.94;100.00;101477.13;5079220;28;20027;-72
2023/12/14 01:54:06;;;;;;;2.03;1.33;;;;;;;-2.83;100.00;101495.72;5078715;28;20029;-73
2023/12/14 01:56:32;;;;;;;2.92;1.40;;;;;;;-2.80;100.00;101491.22;5078909;28;20028;-74
2023/12/14 01:58:58;;;;;;;2.42;1.42;;;;;;;-2.82;100.00;101486.03;5078730;28;20029;-73
2023/12/14 02:01:38;;;;;;;2.33;1.50;;;;;;;-2.80;100.00;101484.16;5078843;28;20124;-70
2023/12/14 02:04:06;;;;;;;1.88;1.20;;;;;;;-2.81;100.00;101484.22;5060745;28;20127;-74
2023/12/14 02:06:31;;;;;;;1.75;1.38;;;;;;;-2.81;100.00;101482.47;5078063;28;20565;-75
2023/12/14 02:08:57;;;;;;;2.08;1.58;;;;;;;-2.77;100.00;101476.06;5060454;28;20127;-73
2023/12/14 02:11:23;;;;;;;2.35;1.58;;;;;;;-2.79;100.00;101477.94;5061044;28;20063;-73
2023/12/14 02:13:48;;;;;;;1.95;1.30;;;;;;;-2.84;100.00;101480.88;5060198;28;20127;-75
2023/12/14 02:16:13;;;;;;;1.77;1.30;;;;;;;-2.86;100.00;101482.72;5078296;28;20036;-71
2023/12/14 02:18:39;;;;;;;1.83;1.52;;;;;;;-2.80;100.00;101492.06;5060941;28;20047;-74
2023/12/14 02:21:04;;;;;;;2.10;1.52;;;;;;;-2.81;100.00;101492.13;5078295;28;20036;-70
2023/12/14 02:23:30;;;;;;;2.25;1.25;;;;;;;-2.81;100.00;101481.59;5060642;28;20032;-72
2023/12/14 02:25:55;;;;;;;2.15;1.48;;;;;;;-2.80;100.00;101478.03;5043564;28;20114;-74
2023/12/14 02:28:21;;;;;;;2.17;1.45;;;;;;;-2.84;100.00;101478.22;5060360;28;20119;-70
2023/12/14 02:30:46;;;;;;;2.50;1.50;;;;;;;-2.87;100.00;101477.56;5060478;28;20118;-74
2023/12/14 02:33:11;;;;;;;1.90;1.45;;;;;;;-2.91;100.00;101474.28;5060452;28;20110;-74
2023/12/14 02:35:37;;;;;;;1.73;1.20;;;;;;;-2.75;100.00;101489.97;5060124;28;20064;-70
2023/12/14 02:38:02;;;;;;;3.28;1.48;;;;;;;-2.76;100.00;101487.44;5059588;28;20052;-69
2023/12/14 02:40:27;;;;;;;2.20;1.40;;;;;;;-2.79;100.00;101487.63;5077909;28;20049;-74
2023/12/14 02:42:53;;;;;;;3.05;1.48;;;;;;;-2.81;100.00;101484.22;5059816;28;20593;-72
2023/12/14 02:45:20;;;;;;;1.58;1.25;;;;;;;-2.89;100.00;101472.38;5059703;28;20032;-70
2023/12/14 02:47:48;;;;;;;2.53;1.50;;;;;;;-3.01;100.00;101460.00;5059862;28;20024;-71
2023/12/14 02:50:13;;;;;;;2.00;1.67;;;;;;;-2.80;100.00;101491.22;5043610;28;20033;-77
2023/12/14 02:52:39;;;;;;;2.13;1.50;;;;;;;-2.99;100.00;101450.22;5077814;28;20036;-71
2023/12/14 02:55:05;;;;;;;2.10;1.48;;;;;;;-2.76;100.00;101482.16;5043101;28;20033;-68
2023/12/14 02:57:31;;;;;;;1.83;1.40;;;;;;;-2.80;100.00;101485.94;5042807;28;20029;-73
2023/12/14 02:59:57;;;;;;;2.30;1.50;;;;;;;-2.83;100.00;101486.97;5043153;28;20039;-71
2023/12/14 03:02:22;;;;;;;1.30;1.20;;;;;;;-2.80;100.00;101488.56;5042990;28;20445;-71
2023/12/14 03:04:47;;;;;;;3.15;1.52;;;;;;;-2.80;100.00;101492.06;5077964;28;20024;-70
2023/12/14 03:07:13;;;;;;;1.38;1.20;;;;;;;-2.81;100.00;101486.84;5077543;28;20115;-70
2023/12/14 03:09:44;;;;;;;1.73;1.20;;;;;;;-2.79;100.00;101503.44;5077176;28;20028;-72
2023/12/14 03:12:10;;;;;;;1.52;1.23;;;;;;;-3.32;100.00;101419.78;5060427;28;20040;-70
2023/12/14 03:14:38;;;;;;;1.63;1.38;;;;;;;-2.74;100.00;101498.72;5077595;28;20072;-73
2023/12/14 03:17:05;;;;;;;1.60;1.33;;;;;;;-2.76;100.00;101496.19;5077794;28;20081;-69
2023/12/14 03:19:30;;;;;;;2.60;1.38;;;;;;;-2.89;100.00;101475.03;5059595;28;20097;-72
2023/12/14 03:21:56;;;;;;;1.52;1.35;;;;;;;-2.89;100.00;101475.03;5042246;28;20063;-70
2023/12/14 03:24:21;;;;;;;1.65;1.35;;;;;;;-2.71;100.00;101494.13;5026933;28;20115;-69
2023/12/14 03:26:48;;;;;;;2.17;1.20;;;;;;;-2.72;100.00;101500.31;5060051;28;20105;-69
2023/12/14 03:29:13;;;;;;;1.48;1.27;;;;;;;-2.68;100.00;101496.56;5077825;28;20028;-69
2023/12/14 03:31:39;;;;;;;2.53;1.50;;;;;;;-2.67;100.00;101492.97;5059689;28;20062;-71
2023/12/14 03:34:05;;;;;;;1.90;1.33;;;;;;;-2.81;100.00;101439.44;5043165;28;20024;-69
2023/12/14 03:36:31;;;;;;;3.13;1.60;;;;;;;-2.61;100.00;101468.03;5059660;28;20039;-68
2023/12/14 03:38:56;;;;;;;1.83;1.50;;;;;;;-2.57;100.00;101477.44;5043081;28;20025;-69
2023/12/14 03:41:21;;;;;;;2.53;1.35;;;;;;;-2.53;100.00;101472.81;5039254;28;20187;-68
2023/12/14 03:43:47;;;;;;;3.47;1.30;;;;;;;-2.54;100.00;101463.22;5057022;28;20028;-69
2023/12/14 03:46:12;;;;;;;2.33;1.48;;;;;;;-2.55;100.00;101458.88;5056740;28;20351;-68
2023/12/14 03:48:37;;;;;;;1.60;1.08;;;;;;;-2.52;100.00;101463.94;5055012;28;20506;-70
2023/12/14 03:51:05;;;;;;;2.10;1.38;;;;;;;-2.67;100.00;101448.19;5059288;28;20387;-71
2023/12/14 03:53:32;;;;;;;2.72;1.27;;;;;;;-2.57;100.00;101473.94;5061538;28;20161;-69
2023/12/14 03:56:00;;;;;;;1.58;1.10;;;;;;;-2.56;100.00;101473.00;5060051;28;20037;-68
2023/12/14 03:58:26;;;;;;;1.77;1.00;;;;;;;-2.52;100.00;101475.31;5059076;28;20033;-68
2023/12/14 04:00:52;;;;;;;2.13;1.33;;;;;;;-2.65;100.00;101446.31;5057598;28;20035;-69
2023/12/14 04:03:17;;;;;;;1.92;1.30;;;;;;;-2.64;100.00;101449.78;5057959;28;20025;-70
2023/12/14 04:05:44;;;;;;;3.70;1.40;;;;;;;-2.48;100.00;101479.47;5075071;28;20028;-68
2023/12/14 04:08:09;;;;;;;2.25;1.50;;;;;;;-2.46;100.00;101480.22;5061662;28;20036;-68
2023/12/14 04:10:36;;;;;;;2.53;1.70;;;;;;;-2.70;100.00;101443.13;5063956;28;20562;-69
2023/12/14 04:13:01;;;;;;;2.55;1.65;;;;;;;-2.72;100.00;101452.03;5063579;28;20029;-67
2023/12/14 04:15:27;;;;;;;1.80;1.45;;;;;;;-2.85;100.00;101430.91;5064674;28;20060;-67
2023/12/14 04:17:54;;;;;;;2.08;1.55;;;;;;;-2.69;100.00;101449.22;5064137;28;20054;-67
2023/12/14 04:20:19;;;;;;;2.58;1.73;;;;;;;-2.60;100.00;101453.91;5063430;28;20037;-66
2023/12/14 04:22:45;;;;;;;1.83;1.50;;;;;;;-2.74;100.00;101417.06;5036450;28;20044;-70
2023/12/14 04:25:10;;;;;;;2.17;1.70;;;;;;;-2.52;100.00;101448.13;5059306;28;20025;-70
2023/12/14 04:27:36;;;;;;;2.90;1.60;;;;;;;-2.52;100.00;101446.34;5057798;28;20116;-73
2023/12/14 04:30:01;;;;;;;2.10;1.67;;;;;;;-2.61;100.00;101454.88;5040235;28;20029;-71
2023/12/14 04:32:27;;;;;;;2.15;1.40;;;;;;;-2.66;100.00;101452.50;5040225;28;20108;-69
2023/12/14 04:34:52;;;;;;;1.95;1.40;;;;;;;-2.81;100.00;101424.53;5057584;28;20052;-72
2023/12/14 04:37:18;;;;;;;2.28;1.42;;;;;;;-2.66;100.00;101441.13;5057309;28;20052;-72
2023/12/14 04:39:43;;;;;;;1.45;1.20;;;;;;;-2.60;100.00;101465.28;5058118;28;20033;-72
2023/12/14 04:42:08;;;;;;;2.05;1.33;;;;;;;-2.62;100.00;101469.84;5077778;28;20052;-71
2023/12/14 04:44:34;;;;;;;2.63;1.58;;;;;;;-2.57;100.00;101479.22;5027335;28;20025;-70
2023/12/14 04:46:59;;;;;;;1.88;1.50;;;;;;;-2.57;100.00;101484.50;5059848;28;20044;-70
2023/12/14 04:49:24;;;;;;;1.88;1.25;;;;;;;-2.63;100.00;101480.44;5078094;28;20028;-71
2023/12/14 04:51:50;;;;;;;2.17;1.40;;;;;;;-2.56;100.00;101491.44;5059238;28;20024;-70
2023/12/14 04:54:15;;;;;;;1.85;1.40;;;;;;;-2.70;100.00;101460.72;5059893;28;20360;-72
2023/12/14 04:56:41;;;;;;;2.65;1.40;;;;;;;-2.47;100.00;101501.41;5076394;28;20467;-71
2023/12/14 04:59:07;;;;;;;2.13;1.40;;;;;;;-2.49;100.00;101501.47;5041780;28;20028;-69
2023/12/14 05:01:32;;;;;;;1.95;1.10;;;;;;;-2.53;100.00;101505.25;5044162;28;20043;-71
2023/12/14 05:03:59;;;;;;;2.70;1.17;;;;;;;-2.78;100.00;101463.84;5061686;28;20075;-69
2023/12/14 05:06:26;;;;;;;2.08;1.35;;;;;;;-2.56;100.00;101504.63;5044262;28;20029;-69
2023/12/14 05:08:51;;;;;;;1.52;1.10;;;;;;;-2.55;100.00;101501.91;5060523;28;20032;-72
2023/12/14 05:11:16;;;;;;;1.70;1.27;;;;;;;-2.57;100.00;101503.78;5060559;28;20131;-71
2023/12/14 05:13:42;;;;;;;2.72;1.45;;;;;;;-2.55;100.00;101501.03;5027988;28;20027;-69
2023/12/14 05:16:14;;;;;;;2.08;1.42;;;;;;;-2.57;100.00;101503.78;5078876;28;20028;-73
2023/12/14 05:18:40;;;;;;;1.80;1.30;;;;;;;-2.63;100.00;101499.72;5077339;28;20032;-71
2023/12/14 05:21:05;;;;;;;2.33;1.48;;;;;;;-2.53;100.00;101505.25;5061735;28;20540;-79
2023/12/14 05:23:31;;;;;;;1.33;1.17;;;;;;;-2.51;100.00;101519.19;5061976;28;20033;-73
2023/12/14 05:25:57;;;;;;;2.08;1.30;;;;;;;-2.58;100.00;101515.25;5079531;28;20095;-71
2023/12/14 05:28:23;;;;;;;1.80;1.27;;;;;;;-2.60;100.00;101527.69;5045747;28;20051;-70
2023/12/14 05:30:51;;;;;;;1.52;1.17;;;;;;;-2.57;100.00;101538.03;5046210;28;20499;-83
2023/12/14 05:33:16;;;;;;;2.20;1.48;;;;;;;-2.68;100.00;101511.50;5080160;28;20068;-82
2023/12/14 05:35:43;;;;;;;2.38;1.30;;;;;;;-2.45;100.00;101545.16;5062664;28;20051;-75
2023/12/14 05:38:10;;;;;;;2.35;1.40;;;;;;;-2.41;100.00;101554.56;5062987;28;20552;-70
2023/12/14 05:40:35;;;;;;;2.40;1.30;;;;;;;-2.38;100.00;101548.25;5082267;28;20071;-79
2023/12/14 05:43:00;;;;;;;2.83;1.40;;;;;;;-2.34;100.00;101562.94;5063877;28;20024;-76
2023/12/14 05:45:26;;;;;;;2.90;1.42;;;;;;;-2.32;100.00;101554.91;5080729;28;20036;-72
2023/12/14 05:47:51;;;;;;;2.58;1.50;;;;;;;-2.30;100.00;101559.16;5062723;28;20524;-78
2023/12/14 05:50:17;;;;;;;2.33;1.55;;;;;;;-2.29;100.00;101554.72;5046268;28;20036;-79
2023/12/14 05:52:42;;;;;;;2.00;1.42;;;;;;;-2.31;100.00;101554.00;5080488;28;20568;-81
2023/12/14 05:55:12;;;;;;;3.67;1.48;;;;;;;-2.34;100.00;101551.56;5080397;28;20029;-76
2023/12/14 05:57:37;;;;;;;2.47;1.55;;;;;;;-2.51;100.00;101524.47;5081454;28;20029;-82
2023/12/14 06:00:07;;;;;;;2.00;1.42;;;;;;;-2.45;100.00;101541.66;5063245;28;20055;-79
2023/12/14 06:02:36;;;;;;;2.17;1.40;;;;;;;-2.47;100.00;101539.13;5080525;28;20024;-81
2023/12/14 06:05:02;;;;;;;2.22;1.60;;;;;;;-2.90;100.00;101460.19;5080535;28;20016;-75
2023/12/14 06:07:27;;;;;;;2.15;1.50;;;;;;;-2.33;100.00;101550.59;5078458;28;20037;-76
2023/12/14 06:09:54;;;;;;;2.70;1.50;;;;;;;-2.31;100.00;101546.09;5079781;28;20119;-78
2023/12/14 06:12:19;;;;;;;3.13;1.60;;;;;;;-2.36;100.00;101536.66;5081372;28;20036;-74
2023/12/14 06:14:45;;;;;;;3.10;1.75;;;;;;;-2.37;100.00;101548.16;5084182;28;20047;-77
2023/12/14 06:17:10;;;;;;;3.28;1.70;;;;;;;-2.82;100.00;101475.50;5048411;28;20534;-73
2023/12/14 06:19:36;;;;;;;2.60;1.40;;;;;;;-2.31;100.00;101548.72;5081778;28;20072;-71
2023/12/14 06:22:01;;;;;;;1.90;1.55;;;;;;;-2.31;100.00;101551.34;5062676;28;20302;-76
2023/12/14 06:24:26;;;;;;;1.95;1.52;;;;;;;-2.28;100.00;101557.28;5046072;28;20039;-74
2023/12/14 06:26:52;;;;;;;3.25;1.60;;;;;;;-2.27;100.00;101563.38;5078047;28;20024;-77
2023/12/14 06:29:17;;;;;;;2.03;1.45;;;;;;;-2.23;100.00;101570.16;5058814;28;20035;-71
2023/12/14 06:31:45;;;;;;;2.13;1.60;;;;;;;-2.31;100.00;101562.75;5077906;28;20248;-77
2023/12/14 06:34:11;;;;;;;1.85;1.40;;;;;;;-2.24;100.00;101571.09;5080834;28;20085;-75
2023/12/14 06:36:43;;;;;;;2.63;1.63;;;;;;;-2.27;100.00;101580.03;5066546;28;20115;-75
2023/12/14 06:39:10;;;;;;;3.25;1.48;;;;;;;-2.26;100.00;101571.19;5049530;28;20020;-73
2023/12/14 06:41:37;;;;;;;1.60;1.50;;;;;;;-2.25;100.00;101577.28;5046570;28;20052;-74
2023/12/14 06:44:02;;;;;;;3.05;1.50;;;;;;;-2.32;100.00;101568.94;5043740;28;20047;-77
2023/12/14 06:46:29;;;;;;;2.08;1.65;;;;;;;-2.38;100.00;101567.56;5026334;28;20037;-73
2023/12/14 06:48:55;;;;;;;1.98;1.60;;;;;;;-2.36;100.00;101586.72;5060426;28;20388;-77
2023/12/14 06:51:24;;;;;;;2.20;1.40;;;;;;;-2.45;100.00;101568.88;5079361;28;20101;-83
2023/12/14 06:53:49;;;;;;;3.10;1.70;;;;;;;-2.63;100.00;101536.63;5046392;28;20035;-74
2023/12/14 06:56:15;;;;;;;2.05;1.63;;;;;;;-2.34;100.00;101586.66;5042966;28;20032;-74
2023/12/14 06:58:42;;;;;;;3.58;1.80;;;;;;;-2.26;100.00;101594.06;5043868;28;20554;-82
2023/12/14 07:01:12;;;;;;;1.98;1.58;;;;;;;-2.26;100.00;101588.78;5042247;28;20119;-79
2023/12/14 07:03:40;;;;;;;2.22;1.75;;;;;;;-2.39;100.00;101570.28;5076075;28;20414;-79
2023/12/14 07:06:06;;;;;;;2.40;1.60;;;;;;;-2.26;100.00;101597.53;5057641;28;20111;-78
2023/12/14 07:08:32;;;;;;;3.30;1.90;;;;;;;-2.29;100.00;101596.91;5056311;28;20028;-80
2023/12/14 07:10:57;;;;;;;1.95;1.55;;;;;;;-2.30;100.00;101592.56;5058963;28;20036;-74
2023/12/14 07:13:24;;;;;;;3.60;1.75;;;;;;;-2.28;100.00;101598.63;5041744;28;20150;-74
2023/12/14 07:15:49;;;;;;;3.13;1.60;;;;;;;-2.45;100.00;101563.63;5058468;28;20032;-76
2023/12/14 07:18:14;;;;;;;3.50;1.60;;;;;;;-2.33;100.00;101590.97;5059600;28;20043;-75
2023/12/14 07:20:40;;;;;;;3.13;1.77;;;;;;;-2.33;100.00;101601.50;5078180;28;20050;-73
2023/12/14 07:23:07;;;;;;;2.05;1.75;;;;;;;-2.32;100.00;101612.91;5060007;28;20088;-76
2023/12/14 07:25:32;;;;;;;3.20;1.98;;;;;;;-2.34;100.00;101612.16;5060841;28;20032;-79
2023/12/14 07:27:57;;;;;;;2.65;1.80;;;;;;;-2.30;100.00;101611.03;5078500;28;20036;-75
2023/12/14 07:30:23;;;;;;;2.92;1.83;;;;;;;-2.28;100.00;101617.91;5060521;28;20051;-80
2023/12/14 07:32:48;;;;;;;3.13;2.10;;;;;;;-2.27;100.00;101622.22;5078499;28;20024;-80
2023/12/14 07:35:13;;;;;;;3.17;2.08;;;;;;;-2.38;100.00;101611.53;5077976;28;20023;-78
2023/12/14 07:37:39;;;;;;;6.35;2.03;;;;;;;-2.39;100.00;101617.72;5077524;28;20035;-76
2023/12/14 07:40:05;;;;;;;3.22;1.73;;;;;;;-2.40;100.00;101619.50;5059550;28;20056;-76
2023/12/14 07:42:31;;;;;;;2.33;1.60;;;;;;;-2.43;100.00;101614.41;5058942;28;20113;-76
2023/12/14 07:44:57;;;;;;;3.10;2.00;;;;;;;-2.55;100.00;101595.88;5077237;28;20047;-78
2023/12/14 07:47:22;;;;;;;2.38;1.80;;;;;;;-2.40;100.00;101616.03;5059871;28;20052;-76
2023/12/14 07:49:47;;;;;;;3.30;2.20;;;;;;;-2.36;100.00;101622.78;5043323;28;20025;-81
2023/12/14 07:52:13;;;;;;;2.75;2.13;;;;;;;-2.38;100.00;101620.25;5026330;28;20028;-79
2023/12/14 07:54:39;;;;;;;2.72;1.92;;;;;;;-2.29;100.00;101624.09;5043580;28;20048;-78
2023/12/14 07:57:05;;;;;;;3.53;2.10;;;;;;;-2.44;100.00;101604.81;5077352;28;20498;-79
2023/12/14 07:59:30;;;;;;;3.53;2.47;;;;;;;-2.39;100.00;101618.56;5059931;28;20101;-76
2023/12/14 08:01:57;;;;;;;4.40;2.15;;;;;;;-2.42;100.00;101610.88;5060463;28;20601;-80
2023/12/14 08:04:23;;;;;;;4.78;1.98;;;;;;;-2.42;100.00;101610.88;5042745;28;20111;-80
2023/12/14 08:06:48;;;;;;;4.85;2.30;;;;;;;-2.58;100.00;101590.81;5058874;28;20044;-82
2023/12/14 08:09:14;;;;;;;2.85;2.35;;;;;;;-2.42;100.00;101616.13;5025977;28;20056;-80
2023/12/14 08:11:40;;;;;;;3.55;2.90;;;;;;;-2.36;100.00;101626.28;5076139;28;20150;-71
2023/12/14 08:14:06;;;;;;;3.38;2.45;;;;;;;-2.31;100.00;101625.16;5073671;28;20040;-76
2023/12/14 08:16:31;;;;;;;10.50;2.67;;;;;;;-2.47;100.00;101604.19;5042449;28;20033;-81
2023/12/14 08:18:57;;;;;;;4.45;2.75;;;;;;;-2.27;100.00;101645.09;5076974;28;20548;-79
2023/12/14 08:21:22;;;;;;;3.83;2.30;;;;;;;-2.26;100.00;101646.78;5042272;28;20047;-80
2023/12/14 08:23:48;;;;;;;5.80;2.70;;;;;;;-2.34;100.00;101641.16;5059475;28;20035;-79
2023/12/14 08:26:13;;;;;;;5.28;3.17;;;;;;;-2.32;100.00;101650.66;5058840;28;20483;-81
2023/12/14 08:28:43;;;;;;;5.07;2.90;;;;;;;-2.29;100.00;101649.63;5042239;28;20450;-78
2023/12/14 08:31:09;;;;;;;7.32;3.15;;;;;;;-2.28;100.00;101662.72;5076649;28;20058;-76
2023/12/14 08:33:35;;;;;;;10.90;3.10;;;;;;;-2.37;100.00;101631.66;5076834;28;20445;-76
2023/12/14 08:36:00;;;;;;;7.57;2.80;;;;;;;-2.18;100.00;101663.84;5061546;28;20029;-73
2023/12/14 08:38:26;;;;;;;4.00;2.58;;;;;;;-2.21;100.00;101660.56;5081351;28;20487;-73
2023/12/14 08:40:51;;;;;;;2.65;2.03;;;;;;;-2.29;100.00;101655.72;5029845;28;20359;-73
2023/12/14 08:43:17;;;;;;;3.88;2.45;;;;;;;-2.41;100.00;101641.53;5062809;28;20120;-78
2023/12/14 08:45:42;;;;;;;4.13;2.50;;;;;;;-2.28;100.00;101659.25;5047121;28;20094;-76
2023/12/14 08:48:07;;;;;;;5.38;2.53;;;;;;;-2.22;100.00;101661.47;5083927;28;20050;-72
2023/12/14 08:50:33;;;;;;;7.43;2.53;;;;;;;-2.24;100.00;101671.28;5050405;28;20242;-78
2023/12/14 08:52:59;;;;;;;4.50;2.60;;;;;;;-2.22;100.00;101667.63;5085465;28;20044;-77
2023/12/14 08:55:24;;;;;;;6.53;2.45;;;;;;;-2.18;100.00;101663.84;5051908;28;20035;-78
2023/12/14 08:57:50;;;;;;;3.85;2.40;;;;;;;-2.24;100.00;101658.09;5067410;28;20029;-75
2023/12/14 09:00:17;;;;;;;7.63;2.60;;;;;;;-2.16;100.00;101667.19;5063155;28;20024;-73
2023/12/14 09:02:43;;;;;;;9.70;2.63;;;;;;;-2.17;100.00;101664.69;5062789;28;20052;-73
2023/12/14 09:05:09;;;;;;;5.28;2.35;;;;;;;-2.12;100.00;101667.84;5062461;28;20048;-77
2023/12/14 09:07:34;;;;;;;4.25;2.78;;;;;;;-2.17;100.00;101668.16;5062733;28;20118;-80
2023/12/14 09:10:02;;;;;;;4.53;2.78;;;;;;;-2.31;100.00;101646.25;5045567;28;20036;-78
2023/12/14 09:12:28;;;;;;;6.75;2.83;;;;;;;-2.31;100.00;101646.25;5045689;28;20056;-81
2023/12/14 09:14:53;;;;;;;4.43;2.40;;;;;;;-2.16;100.00;101661.09;5029768;28;20029;-80
2023/12/14 09:17:18;;;;;;;6.63;3.00;;;;;;;-2.16;100.00;101661.09;5029842;28;20024;-79
2023/12/14 09:19:44;;;;;;;5.03;2.45;;;;;;;-2.13;100.00;101666.19;5062487;28;20052;-81
2023/12/14 09:22:09;;;;;;;4.55;2.70;;;;;;;-2.05;100.00;101668.31;5080925;28;20107;-78
2023/12/14 09:24:35;;;;;;;5.40;2.90;;;;;;;-2.00;100.00;101676.81;5029982;28;20090;-75
2023/12/14 09:27:00;;;;;;;6.38;4.30;;;;;;;-1.98;100.00;101680.22;5081254;28;20450;-80
2023/12/14 09:29:25;;;;;;;8.15;3.63;;;;;;;-1.94;100.00;101684.34;5045218;28;20047;-76
2023/12/14 09:31:52;;;;;;;5.68;3.47;;;;;;;-1.91;100.00;101685.00;5045302;28;20032;-76
2023/12/14 09:34:17;;;;;;;6.07;3.35;;;;;;;-1.95;100.00;101685.28;5046180;28;20040;-78
2023/12/14 09:36:43;;;;;;;5.25;3.50;;;;;;;-1.88;100.00;101691.03;5062909;28;20029;-75
2023/12/14 09:39:11;;;;;;;5.00;3.28;;;;;;;-1.95;100.00;101675.59;5062246;28;20036;-82
2023/12/14 09:41:39;;;;;;;5.65;3.60;;;;;;;-1.85;100.00;101688.16;5046168;28;20060;-80
2023/12/14 09:44:06;;;;;;;6.90;4.72;;;;;;;-1.93;100.00;101684.22;5080696;28;20391;-79
2023/12/14 09:46:34;;;;;;;4.88;3.15;;;;;;;-1.94;100.00;101682.53;5061552;28;20070;-76
2023/12/14 09:49:02;;;;;;;7.22;3.95;;;;;;;-2.00;100.00;101671.53;5062582;28;20046;-78
2023/12/14 09:51:28;;;;;;;6.18;3.47;;;;;;;-1.99;100.00;101673.22;5079900;28;20013;-81
2023/12/14 09:53:57;;;;;;;6.45;3.38;;;;;;;-1.87;100.00;101674.25;5045941;28;20151;-79
2023/12/14 09:56:24;;;;;;;5.65;3.13;;;;;;;-1.96;100.00;101675.66;5062523;28;20029;-77
2023/12/14 09:58:50;;;;;;;6.03;3.38;;;;;;;-2.09;100.00;101651.00;5079596;28;20035;-79
2023/12/14 10:01:25;;;;;;;7.18;4.10;;;;;;;-1.86;100.00;101673.28;5061722;28;20024;-79
2023/12/14 10:04:07;;;;;;;5.63;3.85;;;;;;;-1.79;100.00;101669.31;5080155;28;20090;-77
2023/12/14 10:06:33;;;;;;;6.20;4.03;;;;;;;-1.86;100.00;101663.59;5079174;28;20046;-80
2023/12/14 10:08:59;;;;;;;6.82;3.78;;;;;;;-1.90;100.00;101672.63;5045253;28;20028;-78
2023/12/14 10:11:24;;;;;;;9.45;4.75;;;;;;;-1.92;100.00;101664.84;5061303;28;20059;-81
2023/12/14 10:13:50;;;;;;;5.18;3.38;;;;;;;-1.91;100.00;101660.41;5079882;28;20071;-80
2023/12/14 10:16:32;;;;;;;8.07;4.60;;;;;;;-1.89;100.00;101669.06;5079449;28;20435;-80
2023/12/14 10:18:59;;;;;;;7.80;3.97;;;;;;;-1.82;100.00;101675.66;5079125;28;20100;-81
2023/12/14 10:21:26;;;;;;;5.55;3.80;;;;;;;-1.85;100.00;101681.13;5078802;28;20028;-80
2023/12/14 10:23:55;;;;;;;7.35;4.00;;;;;;;-1.77;100.00;101686.75;5079635;28;20123;-76
2023/12/14 10:26:23;;;;;;;4.65;3.30;;;;;;;-2.06;100.00;101651.66;5079254;28;20429;-76
2023/12/14 10:28:50;;;;;;;6.53;5.40;;;;;;;-1.87;100.00;101683.00;5061528;28;20021;-73
2023/12/14 10:31:15;;;;;;;7.18;4.22;;;;;;;-1.79;100.00;101688.63;5078294;28;20103;-77
2023/12/14 10:33:41;;;;;;;6.53;3.88;;;;;;;-1.73;100.00;101682.97;5061147;28;20089;-73
2023/12/14 10:36:08;;;;;;;6.65;3.65;;;;;;;-1.71;100.00;101682.88;5061366;28;20033;-77
2023/12/14 10:38:38;;;;;;;6.10;2.92;;;;;;;-1.74;100.00;101678.63;5044867;28;20028;-77
2023/12/14 10:41:04;;;;;;;7.78;3.10;;;;;;;-1.78;100.00;101686.84;5057334;28;20060;-81
2023/12/14 10:43:32;;;;;;;4.95;3.20;;;;;;;-1.70;100.00;101692.47;5040731;28;20048;-78
2023/12/14 10:45:59;;;;;;;5.68;2.63;;;;;;;-1.61;100.00;101698.97;5057529;28;20028;-76
2023/12/14 10:48:26;;;;;;;6.35;2.95;;;;;;;-1.66;100.00;101705.41;5057361;28;20198;-75
2023/12/14 10:50:53;;;;;;;7.63;3.00;;;;;;;-1.70;100.00;101714.44;5056911;28;20064;-77
2023/12/14 10:53:19;;;;;;;5.22;2.97;;;;;;;-2.30;100.00;101621.56;5057021;28;20040;-79
2023/12/14 10:55:45;;;;;;;4.25;3.05;;;;;;;-1.64;100.00;101715.00;5040508;28;20033;-74
2023/12/14 10:58:11;;;;;;;5.43;2.70;;;;;;;-1.67;100.00;101708.97;5057965;28;20033;-77
2023/12/14 11:00:38;;;;;;;3.90;2.80;;;;;;;-1.67;100.00;101716.03;5057811;28;20407;-80
2023/12/14 11:03:05;;;;;;;6.90;2.95;;;;;;;-1.67;100.00;101710.75;5058149;28;20044;-81
2023/12/14 11:05:33;;;;;;;5.70;2.90;;;;;;;-1.71;100.00;101719.81;5057217;28;20465;-76
2023/12/14 11:08:09;;;;;;;5.20;3.17;;;;;;;-1.71;100.00;101711.91;5057173;28;20115;-74
2023/12/14 11:10:59;;;;;;;3.08;2.47;;;;;;;-1.75;100.00;101715.69;5056628;28;20035;-73
2023/12/14 11:13:25;;;;;;;5.00;2.47;;;;;;;-1.91;100.00;101684.16;5057339;28;20180;-81